createdAt,value
2019-04-27T00:00:47.465Z,86.21
2019-04-27T00:03:18.568Z,86.37
2019-04-27T00:05:49.682Z,86.43
2019-04-27T00:08:24.044Z,86.56
2019-04-27T00:10:59.774Z,86.77
2019-04-27T00:13:29.910Z,87.00
2019-04-27T00:16:11.068Z,86.98
2019-04-27T00:18:45.164Z,87.02
2019-04-27T00:21:21.394Z,87.00
2019-04-27T00:23:50.863Z,86.90
2019-04-27T00:26:20.298Z,86.91
2019-04-27T00:28:49.762Z,86.88
2019-04-27T00:31:19.243Z,86.77
2019-04-27T00:33:49.868Z,86.78
2019-04-27T00:36:32.916Z,86.81
2019-04-27T00:39:09.784Z,86.90
2019-04-27T00:41:40.883Z,86.90
2019-04-27T00:44:10.608Z,86.84
2019-04-27T00:46:40.083Z,86.86
2019-04-27T00:49:09.614Z,86.77
2019-04-27T00:51:39.150Z,86.74
2019-04-27T00:54:08.623Z,86.71
2019-04-27T00:56:48.729Z,86.70
2019-04-27T00:59:36.071Z,86.67
2019-04-27T01:02:16.282Z,86.67
2019-04-27T01:04:45.761Z,86.61
2019-04-27T01:07:15.269Z,86.62
2019-04-27T01:09:44.923Z,86.59
2019-04-27T01:12:15.226Z,86.63
2019-04-27T01:14:45.125Z,86.64
2019-04-27T01:17:15.745Z,86.80
2019-04-27T01:19:45.281Z,86.86
2019-04-27T01:22:14.884Z,87.03
2019-04-27T01:24:44.360Z,86.97
2019-04-27T01:27:32.008Z,86.98
2019-04-27T01:30:01.748Z,86.98
2019-04-27T01:32:33.871Z,86.87
2019-04-27T01:35:02.518Z,86.88
2019-04-27T01:37:33.026Z,86.89
2019-04-27T01:40:03.669Z,86.95
2019-04-27T01:42:33.198Z,87.00
2019-04-27T01:45:02.751Z,87.05
2019-04-27T01:47:32.505Z,87.19
2019-04-27T01:50:01.993Z,87.11
2019-04-27T01:52:31.436Z,87.25
2019-04-27T01:55:00.904Z,87.31
2019-04-27T01:57:30.604Z,87.44
2019-04-27T02:00:00.071Z,87.50
2019-04-27T02:02:31.221Z,87.44
2019-04-27T02:05:19.033Z,87.48
2019-04-27T02:07:49.122Z,87.68
2019-04-27T02:10:19.299Z,87.71
2019-04-27T02:12:48.896Z,87.76
2019-04-27T02:15:19.134Z,87.76
2019-04-27T02:17:50.809Z,87.99
2019-04-27T02:20:19.947Z,88.07
2019-04-27T02:22:50.750Z,88.12
2019-04-27T02:25:21.123Z,88.27
2019-04-27T02:27:59.356Z,88.42
2019-04-27T02:30:45.618Z,88.43
2019-04-27T02:33:16.703Z,88.37
2019-04-27T02:35:46.259Z,88.53
2019-04-27T02:38:15.702Z,88.61
2019-04-27T02:40:51.955Z,88.62
2019-04-27T02:43:26.443Z,88.64
2019-04-27T02:45:55.957Z,88.66
2019-04-27T02:48:25.394Z,88.71
2019-04-27T02:51:02.263Z,88.82
2019-04-27T02:53:49.873Z,88.81
2019-04-27T02:56:20.225Z,88.82
2019-04-27T02:58:49.909Z,88.90
2019-04-27T03:01:20.345Z,88.93
2019-04-27T03:03:50.358Z,88.95
2019-04-27T03:06:20.127Z,88.94
2019-04-27T03:08:53.956Z,88.91
2019-04-27T03:11:23.430Z,88.93
2019-04-27T03:14:15.104Z,89.00
2019-04-27T03:17:00.183Z,88.94
2019-04-27T03:19:31.239Z,88.83
2019-04-27T03:22:02.357Z,88.69
2019-04-27T03:24:49.987Z,88.62
2019-04-27T03:27:21.166Z,88.64
2019-04-27T03:29:50.719Z,88.58
2019-04-27T03:32:22.676Z,88.51
2019-04-27T03:34:52.548Z,88.56
2019-04-27T03:37:22.372Z,88.54
2019-04-27T03:39:51.951Z,88.39
2019-04-27T03:42:21.864Z,88.45
2019-04-27T03:44:51.303Z,88.54
2019-04-27T03:47:20.770Z,88.54
2019-04-27T03:49:50.883Z,88.65
2019-04-27T03:52:23.165Z,88.76
2019-04-27T03:54:54.241Z,88.82
2019-04-27T03:57:34.695Z,88.71
2019-04-27T04:00:10.111Z,88.76
2019-04-27T04:02:40.448Z,88.69
2019-04-27T04:05:10.273Z,88.70
2019-04-27T04:07:40.505Z,88.71
2019-04-27T04:10:10.808Z,88.72
2019-04-27T04:12:56.409Z,88.59
2019-04-27T04:15:35.516Z,88.60
2019-04-27T04:18:05.245Z,88.62
2019-04-27T04:20:34.700Z,88.52
2019-04-27T04:23:04.237Z,88.51
2019-04-27T04:25:33.710Z,88.39
2019-04-27T04:28:03.162Z,88.39
2019-04-27T04:30:32.601Z,88.40
2019-04-27T04:33:02.104Z,88.37
2019-04-27T04:35:33.365Z,88.36
2019-04-27T04:38:03.049Z,88.37
2019-04-27T04:40:43.794Z,88.31
2019-04-27T04:43:29.422Z,88.26
2019-04-27T04:46:19.503Z,88.21
2019-04-27T04:48:50.167Z,88.20
2019-04-27T04:51:20.124Z,88.15
2019-04-27T04:53:51.878Z,88.16
2019-04-27T04:56:21.162Z,88.10
2019-04-27T04:58:50.634Z,87.98
2019-04-27T05:01:20.146Z,87.85
2019-04-27T05:03:49.621Z,87.74
2019-04-27T05:06:19.093Z,87.65
2019-04-27T05:08:49.374Z,87.61
2019-04-27T05:11:19.574Z,87.67
2019-04-27T05:13:49.479Z,87.56
2019-04-27T05:16:19.085Z,87.41
2019-04-27T05:18:49.562Z,87.31
2019-04-27T05:21:31.245Z,87.13
2019-04-27T05:24:02.155Z,87.02
2019-04-27T05:26:31.798Z,86.91
2019-04-27T05:29:03.301Z,86.83
2019-04-27T05:31:32.737Z,86.66
2019-04-27T05:34:02.207Z,86.49
2019-04-27T05:36:32.751Z,86.38
2019-04-27T05:39:02.240Z,86.26
2019-04-27T05:41:37.384Z,86.06
2019-04-27T05:44:07.636Z,85.88
2019-04-27T05:46:41.122Z,85.80
2019-04-27T05:49:21.237Z,85.61
2019-04-27T05:51:51.688Z,85.54
2019-04-27T05:54:21.157Z,85.51
2019-04-27T05:56:50.606Z,85.51
2019-04-27T05:59:20.084Z,85.33
2019-04-27T06:01:49.558Z,84.97
2019-04-27T06:04:19.416Z,84.64
2019-04-27T06:06:49.910Z,84.59
2019-04-27T06:09:19.658Z,84.36
2019-04-27T06:11:50.668Z,84.16
2019-04-27T06:14:20.362Z,84.09
2019-04-27T06:16:51.271Z,83.93
2019-04-27T06:19:22.214Z,83.74
2019-04-27T06:21:52.679Z,83.68
2019-04-27T06:24:26.637Z,83.39
2019-04-27T06:26:56.174Z,82.94
2019-04-27T06:29:25.663Z,82.55
2019-04-27T06:31:55.112Z,82.23
2019-04-27T06:34:24.760Z,81.76
2019-04-27T06:36:54.249Z,81.55
2019-04-27T06:39:23.699Z,81.20
2019-04-27T06:41:53.182Z,80.90
2019-04-27T06:44:22.669Z,80.62
2019-04-27T06:46:52.121Z,80.55
2019-04-27T06:49:21.703Z,80.40
2019-04-27T06:51:51.178Z,80.32
2019-04-27T06:54:21.432Z,80.12
2019-04-27T06:56:51.078Z,79.87
2019-04-27T06:59:20.543Z,79.65
2019-04-27T07:01:50.021Z,79.57
2019-04-27T07:04:19.840Z,79.42
2019-04-27T07:06:54.186Z,78.82
2019-04-27T07:09:20.492Z,78.75
2019-04-27T07:11:49.939Z,78.03
2019-04-27T07:14:19.828Z,77.73
2019-04-27T07:16:50.785Z,77.61
2019-04-27T07:19:21.414Z,77.57
2019-04-27T07:21:50.885Z,77.42
2019-04-27T07:24:20.363Z,76.99
2019-04-27T07:26:49.805Z,76.72
2019-04-27T07:29:19.661Z,76.40
2019-04-27T07:31:49.729Z,76.00
2019-04-27T07:34:19.231Z,75.80
2019-04-27T07:36:49.231Z,75.42
2019-04-27T07:39:19.395Z,74.66
2019-04-27T07:41:49.004Z,73.42
2019-04-27T07:44:22.844Z,73.04
2019-04-27T07:47:10.445Z,71.65
2019-04-27T07:49:39.898Z,71.68
2019-04-27T07:52:09.321Z,70.67
2019-04-27T07:54:40.905Z,70.54
2019-04-27T07:57:09.975Z,70.33
2019-04-27T07:59:41.931Z,70.15
2019-04-27T08:02:11.680Z,69.56
2019-04-27T08:04:41.122Z,68.87
2019-04-27T08:07:10.571Z,68.30
2019-04-27T08:09:40.109Z,68.15
2019-04-27T08:12:10.861Z,68.40
2019-04-27T08:14:40.618Z,68.10
2019-04-27T08:17:10.053Z,67.86
2019-04-27T08:19:39.653Z,67.48
2019-04-27T08:22:09.676Z,67.23
2019-04-27T08:24:40.289Z,66.77
2019-04-27T08:27:14.711Z,66.66
2019-04-27T08:29:48.847Z,66.53
2019-04-27T08:32:20.015Z,65.92
2019-04-27T08:34:49.742Z,65.79
2019-04-27T08:37:19.218Z,65.56
2019-04-27T08:39:49.582Z,65.01
2019-04-27T08:42:19.819Z,64.27
2019-04-27T08:44:49.726Z,64.10
2019-04-27T08:47:19.578Z,62.90
2019-04-27T08:49:49.357Z,61.58
2019-04-27T08:52:19.393Z,60.80
2019-04-27T08:54:49.311Z,60.66
2019-04-27T08:57:20.101Z,60.63
2019-04-27T08:59:51.081Z,60.53
2019-04-27T09:02:20.739Z,60.35
2019-04-27T09:04:50.178Z,59.65
2019-04-27T09:07:33.170Z,59.54
2019-04-27T09:10:13.279Z,60.08
2019-04-27T09:12:53.296Z,58.84
2019-04-27T09:15:36.286Z,58.07
2019-04-27T09:18:06.602Z,57.50
2019-04-27T09:20:38.971Z,56.74
2019-04-27T09:23:09.844Z,56.77
2019-04-27T09:25:39.706Z,54.97
2019-04-27T09:28:09.284Z,55.67
2019-04-27T09:30:39.395Z,55.45
2019-04-27T09:33:08.975Z,55.12
2019-04-27T09:35:38.439Z,55.84
2019-04-27T09:38:07.885Z,55.00
2019-04-27T09:40:37.496Z,55.23
2019-04-27T09:43:07.572Z,54.62
2019-04-27T09:45:37.273Z,53.81
2019-04-27T09:48:08.238Z,53.44
2019-04-27T09:50:37.704Z,52.50
2019-04-27T09:53:07.139Z,51.81
2019-04-27T09:55:37.013Z,51.22
2019-04-27T09:58:07.396Z,50.08
2019-04-27T10:00:37.507Z,50.01
2019-04-27T10:03:07.042Z,48.54
2019-04-27T10:05:36.888Z,47.87
2019-04-27T10:08:07.644Z,46.18
2019-04-27T10:10:37.311Z,45.61
2019-04-27T10:13:07.308Z,46.39
2019-04-27T10:15:36.790Z,46.61
2019-04-27T10:18:06.312Z,46.99
2019-04-27T10:20:40.435Z,45.87
2019-04-27T10:23:07.194Z,47.73
2019-04-27T10:25:37.480Z,47.70
2019-04-27T10:28:07.155Z,46.74
2019-04-27T10:30:36.657Z,47.18
2019-04-27T10:33:08.160Z,47.26
2019-04-27T10:35:37.314Z,46.43
2019-04-27T10:38:06.909Z,46.80
2019-04-27T10:40:38.070Z,46.71
2019-04-27T10:43:07.704Z,47.33
2019-04-27T10:45:37.864Z,47.10
2019-04-27T10:48:07.635Z,46.73
2019-04-27T10:50:37.110Z,46.89
2019-04-27T10:53:07.081Z,48.57
2019-04-27T10:55:37.625Z,48.43
2019-04-27T10:58:07.512Z,48.67
2019-04-27T11:00:41.507Z,48.86
2019-04-27T11:03:12.274Z,48.48
2019-04-27T11:05:59.906Z,48.84
2019-04-27T11:08:29.334Z,47.90
2019-04-27T11:10:58.814Z,49.00
2019-04-27T11:13:28.248Z,49.27
2019-04-27T11:15:57.704Z,49.36
2019-04-27T11:18:27.134Z,49.66
2019-04-27T11:20:56.801Z,49.27
2019-04-27T11:23:26.470Z,48.57
2019-04-27T11:25:55.923Z,48.69
2019-04-27T11:28:26.430Z,47.87
2019-04-27T11:30:55.897Z,47.40
2019-04-27T11:33:26.349Z,47.92
2019-04-27T11:35:58.545Z,48.02
2019-04-27T11:38:27.978Z,46.85
2019-04-27T11:40:57.484Z,47.07
2019-04-27T11:43:26.940Z,45.14
2019-04-27T11:45:56.406Z,45.06
2019-04-27T11:48:26.324Z,43.52
2019-04-27T11:50:56.120Z,43.15
2019-04-27T11:53:26.750Z,44.25
2019-04-27T11:55:56.217Z,44.63
2019-04-27T11:58:26.548Z,45.32
2019-04-27T12:00:56.165Z,44.64
2019-04-27T12:03:25.771Z,44.44
2019-04-27T12:06:00.051Z,44.51
2019-04-27T12:08:27.518Z,44.05
2019-04-27T12:10:56.999Z,44.82
2019-04-27T12:13:26.420Z,44.04
2019-04-27T12:15:55.879Z,43.76
2019-04-27T12:18:25.355Z,43.69
2019-04-27T12:20:55.787Z,43.75
2019-04-27T12:23:33.731Z,43.26
2019-04-27T12:25:56.463Z,42.62
2019-04-27T12:28:27.576Z,43.39
2019-04-27T12:30:58.692Z,42.99
2019-04-27T12:33:28.227Z,43.64
2019-04-27T12:35:57.782Z,43.91
2019-04-27T12:38:28.283Z,43.50
2019-04-27T12:40:57.899Z,43.59
2019-04-27T12:43:27.357Z,42.50
2019-04-27T12:45:56.811Z,41.98
2019-04-27T12:48:26.352Z,42.48
2019-04-27T12:50:56.411Z,42.63
2019-04-27T12:53:27.585Z,41.96
2019-04-27T12:56:17.046Z,43.01
2019-04-27T12:58:53.968Z,43.39
2019-04-27T13:01:25.845Z,44.59
2019-04-27T13:03:58.883Z,45.53
2019-04-27T13:06:26.590Z,46.50
2019-04-27T13:08:56.124Z,47.50
2019-04-27T13:11:26.698Z,48.41
2019-04-27T13:13:57.690Z,49.72
2019-04-27T13:16:30.338Z,51.29
2019-04-27T13:18:58.453Z,51.61
2019-04-27T13:21:27.963Z,51.60
2019-04-27T13:24:04.106Z,51.47
2019-04-27T13:26:29.911Z,51.03
2019-04-27T13:28:59.667Z,50.46
2019-04-27T13:31:29.144Z,50.06
2019-04-27T13:33:58.604Z,50.30
2019-04-27T13:36:28.070Z,50.42
2019-04-27T13:38:57.668Z,50.07
2019-04-27T13:41:32.634Z,49.93
2019-04-27T13:43:58.386Z,50.15
2019-04-27T13:46:29.474Z,50.69
2019-04-27T13:49:09.833Z,50.97
2019-04-27T13:51:41.001Z,51.25
2019-04-27T13:54:19.669Z,51.67
2019-04-27T13:56:41.691Z,51.54
2019-04-27T13:59:12.797Z,51.86
2019-04-27T14:01:42.319Z,51.90
2019-04-27T14:04:11.786Z,50.94
2019-04-27T14:06:42.054Z,51.00
2019-04-27T14:09:12.775Z,50.98
2019-04-27T14:11:42.801Z,51.77
2019-04-27T14:14:12.258Z,52.35
2019-04-27T14:16:43.820Z,52.01
2019-04-27T14:19:12.935Z,52.22
2019-04-27T14:21:42.401Z,50.95
2019-04-27T14:24:11.841Z,50.36
2019-04-27T14:26:41.431Z,50.58
2019-04-27T14:29:10.904Z,50.67
2019-04-27T14:31:40.377Z,50.88
2019-04-27T14:34:09.816Z,50.84
2019-04-27T14:36:40.561Z,51.19
2019-04-27T14:39:12.680Z,51.49
2019-04-27T14:41:42.277Z,52.19
2019-04-27T14:44:11.806Z,52.55
2019-04-27T14:46:42.206Z,53.02
2019-04-27T14:49:11.686Z,54.26
2019-04-27T14:51:41.146Z,55.49
2019-04-27T14:54:10.612Z,56.07
2019-04-27T14:56:40.270Z,55.97
2019-04-27T14:59:10.938Z,56.41
2019-04-27T15:01:41.506Z,56.17
2019-04-27T15:04:11.013Z,56.74
2019-04-27T15:06:40.506Z,56.91
2019-04-27T15:09:13.349Z,57.51
2019-04-27T15:11:41.629Z,57.87
2019-04-27T15:14:11.106Z,57.99
2019-04-27T15:16:42.650Z,58.30
2019-04-27T15:19:17.584Z,58.95
2019-04-27T15:21:56.430Z,58.93
2019-04-27T15:24:15.661Z,59.35
2019-04-27T15:26:45.442Z,60.19
2019-04-27T15:29:20.515Z,60.33
2019-04-27T15:31:49.589Z,61.27
2019-04-27T15:34:35.472Z,61.97
2019-04-27T15:37:11.456Z,62.69
2019-04-27T15:40:04.014Z,63.28
2019-04-27T15:42:33.055Z,63.84
2019-04-27T15:45:02.681Z,63.81
2019-04-27T15:47:33.713Z,64.78
2019-04-27T15:50:04.259Z,65.16
2019-04-27T15:52:34.791Z,65.99
2019-04-27T15:55:11.223Z,66.52
2019-04-27T15:57:38.209Z,67.18
2019-04-27T16:00:17.237Z,68.05
2019-04-27T16:02:44.483Z,69.23
2019-04-27T16:05:16.753Z,69.98
2019-04-27T16:07:44.951Z,70.72
2019-04-27T16:10:17.714Z,71.52
2019-04-27T16:13:05.466Z,71.93
2019-04-27T16:15:18.517Z,72.37
2019-04-27T16:17:53.232Z,73.18
2019-04-27T16:20:28.879Z,73.81
2019-04-27T16:22:50.498Z,74.34
2019-04-27T16:25:23.531Z,74.83
2019-04-27T16:27:51.107Z,75.12
2019-04-27T16:30:20.733Z,75.89
2019-04-27T16:32:50.218Z,76.55
2019-04-27T16:35:23.001Z,76.83
2019-04-27T16:38:00.109Z,76.91
2019-04-27T16:40:30.126Z,77.24
2019-04-27T16:43:00.912Z,77.45
2019-04-27T16:45:30.592Z,77.80
2019-04-27T16:48:02.022Z,77.78
2019-04-27T16:50:32.569Z,77.67
2019-04-27T16:53:02.038Z,78.18
2019-04-27T16:55:34.093Z,78.46
2019-04-27T16:58:02.713Z,78.21
2019-04-27T17:00:33.436Z,77.76
2019-04-27T17:03:05.082Z,77.35
2019-04-27T17:05:34.784Z,77.49
2019-04-27T17:08:04.535Z,77.21
2019-04-27T17:10:34.067Z,76.57
2019-04-27T17:13:06.132Z,76.48
2019-04-27T17:15:53.696Z,76.49
2019-04-27T17:18:25.525Z,77.25
2019-04-27T17:21:00.115Z,76.96
2019-04-27T17:23:31.110Z,77.39
2019-04-27T17:26:04.454Z,77.77
2019-04-27T17:28:50.925Z,78.12
2019-04-27T17:31:22.250Z,78.33
2019-04-27T17:33:56.054Z,78.64
2019-04-27T17:36:25.658Z,78.80
2019-04-27T17:38:55.094Z,79.59
2019-04-27T17:41:24.625Z,79.53
2019-04-27T17:43:54.166Z,79.43
2019-04-27T17:46:23.704Z,80.00
2019-04-27T17:48:53.212Z,79.68
2019-04-27T17:51:22.691Z,80.03
2019-04-27T17:53:52.257Z,80.20
2019-04-27T17:56:33.409Z,80.33
2019-04-27T17:58:52.873Z,79.98
2019-04-27T18:01:29.261Z,79.97
2019-04-27T18:04:00.179Z,80.21
2019-04-27T18:06:27.820Z,80.06
2019-04-27T18:09:00.840Z,79.72
2019-04-27T18:11:28.797Z,79.86
2019-04-27T18:14:00.356Z,80.08
2019-04-27T18:16:33.953Z,79.95
2019-04-27T18:19:11.952Z,80.12
2019-04-27T18:21:43.447Z,80.47
2019-04-27T18:24:18.601Z,80.45
2019-04-27T18:27:00.483Z,80.96
2019-04-27T18:29:30.753Z,81.18
2019-04-27T18:31:58.286Z,81.10
2019-04-27T18:34:28.643Z,81.20
2019-04-27T18:36:58.286Z,81.52
2019-04-27T18:39:27.729Z,81.65
2019-04-27T18:41:58.518Z,81.90
2019-04-27T18:44:31.760Z,81.74
2019-04-27T18:47:02.276Z,81.83
2019-04-27T18:49:35.719Z,81.78
2019-04-27T18:52:23.269Z,81.83
2019-04-27T18:54:52.702Z,82.03
2019-04-27T18:57:22.155Z,82.33
2019-04-27T18:59:51.590Z,82.06
2019-04-27T19:02:21.093Z,82.12
2019-04-27T19:04:50.523Z,82.08
2019-04-27T19:07:20.097Z,81.68
2019-04-27T19:09:49.695Z,81.67
2019-04-27T19:12:20.541Z,82.02
2019-04-27T19:14:50.102Z,82.15
2019-04-27T19:17:20.021Z,82.20
2019-04-27T19:19:50.704Z,82.47
2019-04-27T19:22:20.222Z,82.60
2019-04-27T19:24:49.685Z,82.69
2019-04-27T19:27:23.363Z,82.85
2019-04-27T19:29:58.875Z,82.91
2019-04-27T19:32:29.238Z,82.85
2019-04-27T19:34:59.335Z,83.08
2019-04-27T19:37:29.011Z,83.11
2019-04-27T19:39:58.544Z,83.39
2019-04-27T19:42:28.644Z,83.42
2019-04-27T19:44:58.207Z,83.56
2019-04-27T19:47:27.671Z,83.78
2019-04-27T19:49:57.108Z,83.85
2019-04-27T19:52:28.237Z,84.01
2019-04-27T19:54:58.532Z,84.04
2019-04-27T19:57:36.354Z,84.10
2019-04-27T20:00:03.998Z,84.05
2019-04-27T20:02:34.596Z,84.27
2019-04-27T20:05:06.348Z,84.39
2019-04-27T20:07:37.947Z,84.33
2019-04-27T20:10:08.804Z,84.43
2019-04-27T20:12:41.114Z,84.51
2019-04-27T20:15:11.512Z,84.44
2019-04-27T20:17:41.004Z,84.43
2019-04-27T20:20:10.928Z,84.38
2019-04-27T20:22:40.360Z,84.21
2019-04-27T20:25:11.238Z,84.25
2019-04-27T20:27:46.831Z,84.11
2019-04-27T20:30:13.931Z,84.13
2019-04-27T20:32:44.763Z,83.94
2019-04-27T20:35:14.204Z,83.96
2019-04-27T20:37:43.803Z,83.88
2019-04-27T20:40:14.330Z,83.85
2019-04-27T20:42:43.869Z,83.94
2019-04-27T20:45:13.455Z,83.97
2019-04-27T20:47:42.902Z,83.85
2019-04-27T20:50:12.833Z,83.76
2019-04-27T20:52:44.013Z,83.84
2019-04-27T20:55:13.564Z,83.79
2019-04-27T20:57:42.991Z,83.69
2019-04-27T21:00:14.182Z,83.49
2019-04-27T21:02:56.113Z,83.45
2019-04-27T21:05:40.968Z,83.42
2019-04-27T21:08:11.990Z,83.30
2019-04-27T21:10:41.457Z,83.26
2019-04-27T21:13:11.326Z,83.17
2019-04-27T21:15:41.897Z,83.28
2019-04-27T21:18:12.615Z,83.37
2019-04-27T21:20:42.132Z,83.51
2019-04-27T21:23:12.183Z,83.40
2019-04-27T21:25:42.243Z,83.16
2019-04-27T21:28:18.563Z,83.09
2019-04-27T21:30:43.062Z,83.09
2019-04-27T21:33:12.498Z,83.10
2019-04-27T21:35:42.145Z,83.18
2019-04-27T21:38:11.755Z,83.24
2019-04-27T21:40:41.216Z,83.34
2019-04-27T21:43:11.359Z,83.33
2019-04-27T21:45:42.015Z,83.26
2019-04-27T21:48:11.653Z,83.18
2019-04-27T21:50:41.402Z,83.23
2019-04-27T21:53:12.574Z,83.13
2019-04-27T21:55:42.276Z,82.90
2019-04-27T21:58:11.804Z,82.73
2019-04-27T22:00:43.165Z,82.73
2019-04-27T22:03:16.027Z,82.77
2019-04-27T22:05:46.578Z,82.89
2019-04-27T22:08:16.004Z,83.03
2019-04-27T22:10:45.470Z,82.90
2019-04-27T22:13:14.930Z,82.94
2019-04-27T22:15:44.536Z,83.05
2019-04-27T22:18:13.972Z,82.85
2019-04-27T22:20:43.473Z,82.67
2019-04-27T22:23:22.973Z,82.63
2019-04-27T22:25:54.306Z,82.72
2019-04-27T22:28:22.763Z,82.65
2019-04-27T22:30:52.227Z,82.58
2019-04-27T22:33:21.666Z,82.79
2019-04-27T22:35:51.749Z,82.79
2019-04-27T22:38:21.340Z,82.88
2019-04-27T22:41:08.575Z,82.78
2019-04-27T22:43:56.269Z,82.40
2019-04-27T22:46:27.441Z,82.39
2019-04-27T22:48:56.922Z,82.22
2019-04-27T22:51:26.398Z,82.15
2019-04-27T22:53:55.833Z,82.39
2019-04-27T22:56:25.304Z,82.71
2019-04-27T22:59:12.549Z,82.72
2019-04-27T23:01:52.729Z,82.76
2019-04-27T23:04:41.210Z,82.64
2019-04-27T23:07:11.185Z,82.49
2019-04-27T23:09:42.785Z,82.53
2019-04-27T23:12:13.022Z,82.33
2019-04-27T23:14:42.458Z,82.48
2019-04-27T23:17:29.015Z,82.57
2019-04-27T23:19:58.452Z,82.45
2019-04-27T23:22:27.925Z,82.45
2019-04-27T23:24:57.349Z,82.53
2019-04-27T23:27:26.819Z,82.62
2019-04-27T23:29:56.263Z,82.69
2019-04-27T23:32:31.658Z,82.66
2019-04-27T23:35:12.937Z,82.91
2019-04-27T23:37:42.414Z,83.13
2019-04-27T23:40:13.882Z,83.22
2019-04-27T23:42:43.379Z,83.15
2019-04-27T23:45:14.114Z,83.24
2019-04-27T23:47:43.602Z,83.05
2019-04-27T23:50:14.514Z,83.21
2019-04-27T23:53:01.920Z,83.23
2019-04-27T23:55:33.312Z,83.14
2019-04-27T23:58:02.980Z,83.22
